Aeroporto :
LOGIN :

Iscrizione | Disclaimer

   EN    FR    IT 

 










Sommario :    VFR   VFR Marginale   IFR   IFR Intensivo   IFR Molto Intensivo
Visibilità : 
Base nubi : 
>= 8 km
>= 3000ft
5 / 8 km
1000 / 3000 ft
1500m / 5 km
500 / 1000 ft
800 / 1500m
200 / 500 ft
< 800m
< 200 ft
Simboli :   Temporali  Nebbia  Neve Forte  Precipitazioni Forti  Vento > 20 kt
SIGMETs :   Varie  Temporali  Ghiacco  Turbolenza  Onda orograficha  Ceneri Vulcaniche






- Altitudine del aeroporto : 97 ft
- Codice IATA : EBJ


EKEB - Esbjerg

ULTIMO METAR :
  • 221220Z AUTO 12006KT 090V160 8000 SCT110/// BKN170/// 07/06 Q1008

METARs OBSOLETI :
  • 221150Z AUTO 13006KT 8000 FEW150/// 07/06 Q1008
  • 221120Z AUTO 14006KT 090V160 8000 FEW008/// 07/06 Q1008
  • 221050Z AUTO 13006KT 100V160 9000 SCT009/// 07/06 Q1008
  • 221020Z AUTO 14007KT 120V180 9000 SCT008/// BKN079/// 07/06 Q1008
  • 220950Z AUTO 13005KT 090V170 7000 BKN076/// BKN120/// 07/06 Q1007
  • 220920Z AUTO 14006KT 9000 FEW005/// FEW073/// BKN120/// 07/06 Q1007

TAF AMD TAF EKEB
Valido dal 22 a 12 ore il 22 a 21 ore UTC


221136Z 2212/2221 13008KT 8000 SCT008
TEMPO 2212/2215 BKN012
TEMPO 2215/2218 SHRA BKN012 SCT015CB
BECMG 2218/2220 4000 BR BKN004
TEMPO 2220/2221 8000 NSW BKN008



MetMap, La meteo Aeronautica in un colpo d'occhio ! - Copyright ORBIFLY Dicembre 2007 - Disclaimer

ORBIFLY MET'MAP TEAM :

Programmazione e sviluppo : Alexandra Zaïnal
Concezione e sviluppo : Baudouin d'Aumeries
Co-Programmazione e sviluppo : Marc-Olivier Méhu
Supporto tecnico e logistico : Manuel Goepfert
Aiuto per la traduzione : Arnaldo La Scala

Contatto : metmap@orbifly.com




FONTI E CREDITI :

   NOAA